createdAt,value
2018-11-05T00:00:18.057Z,100484.04
2018-11-05T00:02:47.056Z,100490.32
2018-11-05T00:05:16.234Z,100487.67
2018-11-05T00:07:51.101Z,100478.37
2018-11-05T00:10:19.746Z,100482.62
2018-11-05T00:12:48.658Z,100483.00
2018-11-05T00:15:17.165Z,100467.31
2018-11-05T00:17:45.571Z,100468.51
2018-11-05T00:20:21.478Z,100460.89
2018-11-05T00:22:49.982Z,100454.54
2018-11-05T00:25:21.362Z,100463.43
2018-11-05T00:27:55.751Z,100457.97
2018-11-05T00:30:24.459Z,100458.38
2018-11-05T00:32:52.904Z,100467.69
2018-11-05T00:35:21.326Z,100471.13
2018-11-05T00:37:53.037Z,100469.85
2018-11-05T00:40:22.636Z,100453.30
2018-11-05T00:42:52.892Z,100441.42
2018-11-05T00:45:21.322Z,100438.36
2018-11-05T00:47:49.754Z,100437.95
2018-11-05T00:50:18.557Z,100434.59
2018-11-05T00:52:47.016Z,100427.49
2018-11-05T00:55:15.426Z,100419.05
2018-11-05T00:57:43.828Z,100418.08
2018-11-05T01:00:14.329Z,100415.55
2018-11-05T01:02:44.148Z,100418.45
2018-11-05T01:05:13.758Z,100422.23
2018-11-05T01:07:45.160Z,100412.83
2018-11-05T01:10:14.844Z,100409.73
2018-11-05T01:12:54.454Z,100409.95
2018-11-05T01:15:24.020Z,100402.30
2018-11-05T01:17:56.465Z,100410.15
2018-11-05T01:20:25.752Z,100409.70
2018-11-05T01:22:56.009Z,100404.66
2018-11-05T01:25:24.531Z,100400.93
2018-11-05T01:27:54.684Z,100397.30
2018-11-05T01:30:23.340Z,100394.42
2018-11-05T01:32:56.132Z,100398.34
2018-11-05T01:38:09.372Z,100398.78
2018-11-05T01:40:43.888Z,100398.38
2018-11-05T01:43:12.318Z,100396.24
2018-11-05T01:45:40.781Z,100389.89
2018-11-05T01:48:09.282Z,100392.06
2018-11-05T01:50:37.729Z,100392.98
2018-11-05T01:53:06.623Z,100397.52
2018-11-05T01:55:35.067Z,100396.55
2018-11-05T01:58:03.478Z,100392.26
2018-11-05T02:00:31.913Z,100393.05
2018-11-05T02:03:00.298Z,100386.14
2018-11-05T02:05:28.802Z,100381.06
2018-11-05T02:07:57.209Z,100378.90
2018-11-05T02:10:25.751Z,100374.20
2018-11-05T02:12:54.047Z,100366.88
2018-11-05T02:15:22.468Z,100367.70
2018-11-05T02:17:50.914Z,100359.23
2018-11-05T02:20:19.361Z,100357.55
2018-11-05T02:22:47.805Z,100355.42
2018-11-05T02:25:16.249Z,100347.32
2018-11-05T02:27:44.656Z,100351.12
2018-11-05T02:30:16.144Z,100356.66
2018-11-05T02:32:44.975Z,100365.53
2018-11-05T02:35:14.220Z,100368.52
2018-11-05T02:37:43.533Z,100363.11
2018-11-05T02:40:17.600Z,100367.33
2018-11-05T02:42:46.447Z,100363.41
2018-11-05T02:45:15.936Z,100360.02
2018-11-05T02:47:44.375Z,100357.47
2018-11-05T02:50:13.682Z,100361.25
2018-11-05T02:52:43.138Z,100358.30
2018-11-05T02:55:11.589Z,100349.55
2018-11-05T02:57:40.054Z,100347.09
2018-11-05T03:00:10.965Z,100341.60
2018-11-05T03:02:39.496Z,100345.34
2018-11-05T03:05:10.017Z,100343.62
2018-11-05T03:07:38.428Z,100349.48
2018-11-05T03:10:08.051Z,100349.03
2018-11-05T03:12:36.429Z,100343.96
2018-11-05T03:15:05.738Z,100338.51
2018-11-05T03:17:34.184Z,100340.63
2018-11-05T03:20:02.568Z,100344.23
2018-11-05T03:22:31.050Z,100337.81
2018-11-05T03:24:59.460Z,100334.83
2018-11-05T03:27:27.981Z,100330.95
2018-11-05T03:29:56.363Z,100339.56
2018-11-05T03:32:24.756Z,100346.88
2018-11-05T03:34:53.221Z,100339.70
2018-11-05T03:37:22.278Z,100339.30
2018-11-05T03:39:50.696Z,100337.55
2018-11-05T03:42:19.113Z,100336.17
2018-11-05T03:44:47.525Z,100334.48
2018-11-05T03:47:15.928Z,100327.39
2018-11-05T03:49:44.386Z,100322.72
2018-11-05T03:52:12.816Z,100330.27
2018-11-05T03:54:41.267Z,100329.30
2018-11-05T03:57:09.703Z,100321.23
2018-11-05T03:59:38.133Z,100317.88
2018-11-05T04:02:06.526Z,100311.57
2018-11-05T04:04:35.001Z,100325.09
2018-11-05T04:07:04.436Z,100328.17
2018-11-05T04:09:32.895Z,100319.40
2018-11-05T04:12:01.308Z,100314.80
2018-11-05T04:14:29.742Z,100317.79
2018-11-05T04:16:58.138Z,100312.78
2018-11-05T04:19:26.560Z,100310.76
2018-11-05T04:21:54.977Z,100304.96
2018-11-05T04:24:23.422Z,100299.02
2018-11-05T04:26:51.824Z,100290.65
2018-11-05T04:29:20.256Z,100300.88
2018-11-05T04:31:48.676Z,100303.03
2018-11-05T04:34:17.181Z,100299.23
2018-11-05T04:36:45.614Z,100303.93
2018-11-05T04:39:15.564Z,100304.38
2018-11-05T04:41:44.026Z,100306.57
2018-11-05T04:44:12.473Z,100312.67
2018-11-05T04:46:41.130Z,100313.62
2018-11-05T04:49:10.227Z,100303.09
2018-11-05T04:51:38.757Z,100308.64
2018-11-05T04:54:07.459Z,100306.97
2018-11-05T04:56:35.854Z,100302.80
2018-11-05T04:59:06.326Z,100297.79
2018-11-05T05:01:34.945Z,100299.50
2018-11-05T05:04:03.344Z,100298.73
2018-11-05T05:06:31.825Z,100284.45
2018-11-05T05:09:00.208Z,100287.14
2018-11-05T05:11:28.657Z,100291.08
2018-11-05T05:13:57.066Z,100285.61
2018-11-05T05:16:25.505Z,100286.11
2018-11-05T05:18:53.846Z,100275.13
2018-11-05T05:21:22.232Z,100278.20
2018-11-05T05:23:50.682Z,100271.93
2018-11-05T05:26:19.068Z,100270.34
2018-11-05T05:28:47.521Z,100269.56
2018-11-05T05:31:15.949Z,100270.09
2018-11-05T05:33:44.506Z,100273.11
2018-11-05T05:36:12.881Z,100275.30
2018-11-05T05:38:41.279Z,100268.61
2018-11-05T05:41:09.770Z,100267.05
2018-11-05T05:43:38.239Z,100261.97
2018-11-05T05:46:06.732Z,100262.05
2018-11-05T05:48:35.166Z,100260.39
2018-11-05T05:51:03.749Z,100263.87
2018-11-05T05:53:32.140Z,100256.42
2018-11-05T05:56:00.548Z,100258.77
2018-11-05T05:58:28.947Z,100261.02
2018-11-05T06:00:57.405Z,100266.16
2018-11-05T06:03:25.891Z,100273.55
2018-11-05T06:05:54.380Z,100285.94
2018-11-05T06:08:22.796Z,100290.77
2018-11-05T06:10:51.200Z,100287.02
2018-11-05T06:13:19.642Z,100291.39
2018-11-05T06:15:48.092Z,100293.20
2018-11-05T06:18:16.535Z,100297.16
2018-11-05T06:20:44.911Z,100292.45
2018-11-05T06:23:13.342Z,100292.75
2018-11-05T06:25:41.790Z,100290.36
2018-11-05T06:28:10.183Z,100285.26
2018-11-05T06:30:38.579Z,100280.16
2018-11-05T06:33:07.018Z,100286.97
2018-11-05T06:35:35.757Z,100290.41
2018-11-05T06:38:04.187Z,100279.09
2018-11-05T06:40:32.667Z,100285.91
2018-11-05T06:43:01.125Z,100284.61
2018-11-05T06:45:29.659Z,100286.72
2018-11-05T06:47:58.075Z,100292.30
2018-11-05T06:50:26.820Z,100290.63
2018-11-05T06:52:55.322Z,100294.09
2018-11-05T06:55:23.656Z,100298.42
2018-11-05T06:57:52.271Z,100295.88
2018-11-05T07:00:24.963Z,100294.63
2018-11-05T07:02:53.389Z,100300.98
2018-11-05T07:05:21.831Z,100299.33
2018-11-05T07:07:50.241Z,100296.80
2018-11-05T07:10:19.402Z,100290.44
2018-11-05T07:12:47.862Z,100287.49
2018-11-05T07:15:17.476Z,100285.41
2018-11-05T07:17:46.908Z,100281.23
2018-11-05T07:20:17.604Z,100271.05
2018-11-05T07:22:46.931Z,100267.77
2018-11-05T07:25:15.948Z,100270.73
2018-11-05T07:27:44.513Z,100268.62
2018-11-05T07:30:17.816Z,100275.03
2018-11-05T07:32:46.822Z,100286.16
2018-11-05T07:35:15.774Z,100286.66
2018-11-05T07:37:44.271Z,100285.48
2018-11-05T07:40:14.271Z,100277.42
2018-11-05T07:42:42.811Z,100273.64
2018-11-05T07:45:15.835Z,100273.64
2018-11-05T07:47:45.183Z,100280.01
2018-11-05T07:50:14.736Z,100276.28
2018-11-05T07:52:43.102Z,100279.85
2018-11-05T07:55:12.717Z,100280.38
2018-11-05T07:57:42.348Z,100276.62
2018-11-05T08:00:17.720Z,100269.91
2018-11-05T08:02:47.383Z,100260.97
2018-11-05T08:05:16.720Z,100253.80
2018-11-05T08:07:45.423Z,100253.38
2018-11-05T08:10:13.924Z,100251.33
2018-11-05T08:12:42.648Z,100252.61
2018-11-05T08:15:13.580Z,100251.37
2018-11-05T08:17:42.965Z,100256.48
2018-11-05T08:20:11.883Z,100257.35
2018-11-05T08:22:40.374Z,100254.45
2018-11-05T08:25:09.848Z,100251.05
2018-11-05T08:27:38.615Z,100248.92
2018-11-05T08:30:11.039Z,100258.33
2018-11-05T08:32:39.442Z,100255.77
2018-11-05T08:35:08.920Z,100252.39
2018-11-05T08:37:37.318Z,100247.78
2018-11-05T08:40:09.634Z,100240.89
2018-11-05T08:42:38.086Z,100248.62
2018-11-05T08:45:06.654Z,100234.56
2018-11-05T08:47:35.054Z,100235.00
2018-11-05T08:50:03.582Z,100228.98
2018-11-05T08:52:31.980Z,100234.56
2018-11-05T08:55:00.410Z,100240.98
2018-11-05T08:57:28.867Z,100241.84
2018-11-05T08:59:57.334Z,100227.80
2018-11-05T09:02:25.841Z,100226.59
2018-11-05T09:04:54.363Z,100219.34
2018-11-05T09:07:22.835Z,100224.47
2018-11-05T09:09:51.380Z,100227.88
2018-11-05T09:12:19.741Z,100216.83
2018-11-05T09:14:48.207Z,100224.13
2018-11-05T09:17:16.667Z,100225.86
2018-11-05T09:19:45.135Z,100230.13
2018-11-05T09:22:13.616Z,100232.30
2018-11-05T09:24:42.077Z,100236.16
2018-11-05T09:27:10.526Z,100231.45
2018-11-05T09:29:38.993Z,100237.44
2018-11-05T09:32:07.445Z,100232.75
2018-11-05T09:34:35.887Z,100229.77
2018-11-05T09:37:04.477Z,100223.81
2018-11-05T09:39:32.924Z,100217.89
2018-11-05T09:42:01.373Z,100202.97
2018-11-05T09:44:29.792Z,100202.13
2018-11-05T09:46:58.254Z,100205.97
2018-11-05T09:49:26.644Z,100205.96
2018-11-05T09:51:55.077Z,100179.46
2018-11-05T09:54:23.543Z,100205.11
2018-11-05T09:56:52.028Z,100200.84
2018-11-05T09:59:20.441Z,100213.21
2018-11-05T10:01:48.868Z,100210.69
2018-11-05T10:04:17.355Z,100211.55
2018-11-05T10:06:45.729Z,100213.26
2018-11-05T10:09:14.160Z,100209.42
2018-11-05T10:11:42.658Z,100206.86
2018-11-05T10:14:11.172Z,100208.58
2018-11-05T10:16:39.697Z,100208.15
2018-11-05T10:19:08.160Z,100224.00
2018-11-05T10:21:36.586Z,100217.60
2018-11-05T10:24:05.068Z,100213.34
2018-11-05T10:26:33.525Z,100212.91
2018-11-05T10:29:01.986Z,100202.67
2018-11-05T10:31:30.421Z,100199.26
2018-11-05T10:33:58.824Z,100199.26
2018-11-05T10:36:27.268Z,100195.00
2018-11-05T10:38:55.738Z,100193.31
2018-11-05T10:41:24.172Z,100182.22
2018-11-05T10:43:52.669Z,100192.03
2018-11-05T10:46:21.263Z,100190.33
2018-11-05T10:48:49.614Z,100185.63
2018-11-05T10:51:18.118Z,100187.36
2018-11-05T10:53:46.493Z,100184.79
2018-11-05T10:56:14.964Z,100175.39
2018-11-05T10:58:43.389Z,100169.42
2018-11-05T11:01:12.724Z,100162.16
2018-11-05T11:03:41.186Z,100152.34
2018-11-05T11:06:10.731Z,100158.73
2018-11-05T11:08:39.096Z,100161.73
2018-11-05T11:11:07.523Z,100168.98
2018-11-05T11:13:35.967Z,100174.11
2018-11-05T11:16:04.405Z,100177.09
2018-11-05T11:18:32.811Z,100165.13
2018-11-05T11:21:01.226Z,100168.58
2018-11-05T11:23:29.666Z,100175.84
2018-11-05T11:25:58.085Z,100173.70
2018-11-05T11:28:26.682Z,100166.00
2018-11-05T11:30:54.968Z,100154.88
2018-11-05T11:33:23.402Z,100140.78
2018-11-05T11:35:51.790Z,100131.39
2018-11-05T11:38:20.251Z,100140.36
2018-11-05T11:40:48.738Z,100147.59
2018-11-05T11:43:17.129Z,100138.17
2018-11-05T11:45:45.524Z,100128.73
2018-11-05T11:48:13.934Z,100139.41
2018-11-05T11:50:42.373Z,100131.26
2018-11-05T11:53:10.956Z,100130.37
2018-11-05T11:55:39.274Z,100127.75
2018-11-05T11:58:07.734Z,100115.31
2018-11-05T12:00:36.173Z,100108.86
2018-11-05T12:03:04.604Z,100105.02
2018-11-05T12:05:33.075Z,100099.00
2018-11-05T12:08:01.462Z,100095.98
2018-11-05T12:10:29.917Z,100091.23
2018-11-05T12:12:58.310Z,100088.25
2018-11-05T12:15:26.762Z,100098.95
2018-11-05T12:17:55.232Z,100100.67
2018-11-05T12:20:24.794Z,100109.59
2018-11-05T12:22:53.883Z,100102.81
2018-11-05T12:25:22.326Z,100110.12
2018-11-05T12:27:50.839Z,100107.15
2018-11-05T12:30:20.548Z,100098.63
2018-11-05T12:32:49.846Z,100091.37
2018-11-05T12:35:18.307Z,100085.41
2018-11-05T12:37:47.840Z,100090.55
2018-11-05T12:40:17.413Z,100091.36
2018-11-05T12:42:46.788Z,100090.95
2018-11-05T12:45:15.306Z,100087.52
2018-11-05T12:47:43.776Z,100081.94
2018-11-05T12:50:17.936Z,100082.34
2018-11-05T12:52:47.207Z,100081.48
2018-11-05T12:55:15.621Z,100073.77
2018-11-05T12:57:44.126Z,100070.34
2018-11-05T13:00:15.836Z,99975.23
2018-11-05T13:02:44.496Z,100073.53
2018-11-05T13:05:13.779Z,100067.97
2018-11-05T13:07:42.228Z,100058.55
2018-11-05T13:10:12.848Z,100058.55
2018-11-05T13:12:41.337Z,100052.98
2018-11-05T13:15:10.640Z,100054.27
2018-11-05T13:17:39.805Z,100053.02
2018-11-05T13:20:11.759Z,100065.05
2018-11-05T13:22:40.384Z,100060.39
2018-11-05T13:25:08.909Z,100052.30
2018-11-05T13:27:37.342Z,100054.48
2018-11-05T13:30:07.617Z,100059.54
2018-11-05T13:32:36.157Z,100056.92
2018-11-05T13:35:05.340Z,100062.94
2018-11-05T13:37:34.063Z,100062.55
2018-11-05T13:40:02.236Z,100059.58
2018-11-05T13:42:30.637Z,100050.65
2018-11-05T13:44:59.053Z,100057.09
2018-11-05T13:47:28.150Z,100054.55
2018-11-05T13:49:56.099Z,100056.23
2018-11-05T13:52:24.493Z,100056.27
2018-11-05T13:54:53.070Z,100055.05
2018-11-05T13:57:21.317Z,100053.34
2018-11-05T13:59:49.788Z,100055.88
2018-11-05T14:02:18.348Z,100049.03
2018-11-05T14:04:46.765Z,100051.63
2018-11-05T14:07:15.312Z,100050.32
2018-11-05T14:09:43.789Z,100041.73
2018-11-05T14:12:12.192Z,100040.00
2018-11-05T14:14:40.777Z,100030.61
2018-11-05T14:17:09.176Z,100028.94
2018-11-05T14:19:37.599Z,100031.52
2018-11-05T14:22:06.075Z,100027.66
2018-11-05T14:24:34.580Z,100019.10
2018-11-05T14:27:03.088Z,100017.82
2018-11-05T14:29:33.099Z,100016.52
2018-11-05T14:32:01.178Z,100018.23
2018-11-05T14:34:30.068Z,100012.28
2018-11-05T14:36:58.863Z,100010.56
2018-11-05T14:39:27.264Z,100011.83
2018-11-05T14:41:55.707Z,100016.96
2018-11-05T14:44:24.138Z,100012.67
2018-11-05T14:46:52.572Z,100017.84
2018-11-05T14:49:21.023Z,100021.72
2018-11-05T14:51:49.525Z,100024.32
2018-11-05T14:54:17.944Z,100020.48
2018-11-05T14:56:46.380Z,100027.34
2018-11-05T14:59:14.781Z,100023.93
2018-11-05T15:01:44.634Z,100024.81
2018-11-05T15:04:13.628Z,100028.70
2018-11-05T15:06:42.276Z,100030.39
2018-11-05T15:09:12.397Z,100023.17
2018-11-05T15:11:40.856Z,100027.43
2018-11-05T15:14:09.302Z,100018.92
2018-11-05T15:16:37.798Z,100018.94
2018-11-05T15:19:06.951Z,100023.66
2018-11-05T15:21:35.152Z,100022.81
2018-11-05T15:24:03.622Z,100025.39
2018-11-05T15:26:32.249Z,100027.96
2018-11-05T15:29:01.191Z,100029.24
2018-11-05T15:31:29.671Z,100026.66
2018-11-05T15:33:58.145Z,100021.55
2018-11-05T15:36:26.578Z,100024.55
2018-11-05T15:38:55.009Z,100030.94
2018-11-05T15:41:23.428Z,100033.95
2018-11-05T15:43:51.861Z,100038.23
2018-11-05T15:46:20.386Z,100038.69
2018-11-05T15:48:48.982Z,100045.51
2018-11-05T15:51:17.675Z,100039.54
2018-11-05T15:53:45.996Z,100039.97
2018-11-05T15:56:14.432Z,100042.53
2018-11-05T15:58:42.877Z,100044.64
2018-11-05T16:01:11.354Z,100042.09
2018-11-05T16:03:39.780Z,100045.51
2018-11-05T16:06:08.177Z,100036.56
2018-11-05T16:08:36.647Z,100038.27
2018-11-05T16:11:05.094Z,100036.55
2018-11-05T16:13:33.629Z,100034.84
2018-11-05T16:16:02.078Z,100031.02
2018-11-05T16:18:30.509Z,100032.30
2018-11-05T16:20:58.995Z,100038.28
2018-11-05T16:23:27.469Z,100033.59
2018-11-05T16:25:55.965Z,100040.45
2018-11-05T16:28:25.215Z,100035.33
2018-11-05T16:30:53.714Z,100039.16
2018-11-05T16:33:23.955Z,100041.30
2018-11-05T16:35:52.424Z,100041.30
2018-11-05T16:38:21.335Z,100033.63
2018-11-05T16:40:49.813Z,100035.34
2018-11-05T16:43:18.245Z,100034.49
2018-11-05T16:45:46.773Z,100037.06
2018-11-05T16:48:16.845Z,100040.48
2018-11-05T16:50:45.985Z,100045.62
2018-11-05T16:53:14.456Z,100042.19
2018-11-05T16:55:46.567Z,100050.30
2018-11-05T16:58:15.144Z,100046.90
2018-11-05T17:00:44.389Z,100042.23
2018-11-05T17:03:12.847Z,100046.90
2018-11-05T17:05:41.334Z,100047.34
2018-11-05T17:08:09.812Z,100051.18
2018-11-05T17:10:38.261Z,100052.47
2018-11-05T17:13:07.068Z,100058.02
2018-11-05T17:15:36.244Z,100050.76
2018-11-05T17:18:04.721Z,100051.61
2018-11-05T17:20:33.231Z,100046.49
2018-11-05T17:23:01.711Z,100045.21
2018-11-05T17:25:30.164Z,100042.62
2018-11-05T17:27:58.603Z,100044.77
2018-11-05T17:30:27.120Z,100037.94
2018-11-05T17:32:55.631Z,100039.65
2018-11-05T17:35:24.085Z,100033.67
2018-11-05T17:37:52.608Z,100028.56
2018-11-05T17:40:22.332Z,100027.28
2018-11-05T17:42:50.782Z,100033.67
2018-11-05T17:45:19.997Z,100035.39
2018-11-05T17:47:48.860Z,100029.86
2018-11-05T17:50:18.540Z,100040.11
2018-11-05T17:52:47.021Z,100039.69
2018-11-05T17:55:15.705Z,100035.84
2018-11-05T17:57:45.501Z,100038.81
2018-11-05T18:00:17.702Z,100036.26
2018-11-05T18:02:46.183Z,100035.41
2018-11-05T18:05:14.915Z,100028.16
2018-11-05T18:07:43.571Z,100032.01
2018-11-05T18:10:12.060Z,100026.89
2018-11-05T18:12:40.609Z,100023.91
2018-11-05T18:15:10.616Z,100023.91
2018-11-05T18:17:39.744Z,100033.69
2018-11-05T18:20:09.521Z,100032.84
2018-11-05T18:22:38.026Z,100030.28
2018-11-05T18:25:07.902Z,100027.30
2018-11-05T18:27:36.599Z,100023.45
2018-11-05T18:30:05.629Z,100017.48
2018-11-05T18:32:34.103Z,100020.08
2018-11-05T18:35:02.578Z,100022.17
2018-11-05T18:37:31.045Z,100019.20
2018-11-05T18:39:59.528Z,100020.08
2018-11-05T18:42:28.012Z,100005.99
2018-11-05T18:44:56.425Z,100002.15
2018-11-05T18:47:24.846Z,99997.01
2018-11-05T18:49:53.308Z,100003.43
2018-11-05T18:52:21.892Z,100005.56
2018-11-05T18:54:50.353Z,100008.98
2018-11-05T18:57:18.850Z,100015.38
2018-11-05T18:59:47.274Z,100014.95
2018-11-05T19:02:20.856Z,100010.66
2018-11-05T19:04:49.263Z,100010.66
2018-11-05T19:07:17.723Z,100019.19
2018-11-05T19:09:46.217Z,100020.05
2018-11-05T19:12:14.733Z,100012.80
2018-11-05T19:14:43.222Z,100015.80
2018-11-05T19:17:11.702Z,100012.37
2018-11-05T19:19:40.202Z,100024.31
2018-11-05T19:22:08.781Z,100023.48
2018-11-05T19:24:37.268Z,100020.05
2018-11-05T19:27:05.965Z,100030.25
2018-11-05T19:29:34.432Z,100027.27
2018-11-05T19:32:02.904Z,100034.95
2018-11-05T19:34:31.379Z,100038.37
2018-11-05T19:36:59.826Z,100043.07
2018-11-05T19:39:28.281Z,100042.22
2018-11-05T19:41:56.792Z,100043.89
2018-11-05T19:44:25.253Z,100038.78
2018-11-05T19:46:53.693Z,100041.34
2018-11-05T19:49:22.153Z,100040.92
2018-11-05T19:51:50.745Z,100046.89
2018-11-05T19:54:19.229Z,100038.80
2018-11-05T19:56:47.739Z,100038.80
2018-11-05T19:59:16.219Z,100033.67
2018-11-05T20:01:44.663Z,100029.84
2018-11-05T20:04:13.208Z,100023.02
2018-11-05T20:06:41.595Z,100030.69
2018-11-05T20:09:10.045Z,100022.16
2018-11-05T20:11:38.614Z,100019.18
2018-11-05T20:14:07.130Z,100017.47
2018-11-05T20:16:35.693Z,100026.00
2018-11-05T20:19:04.182Z,100017.91
2018-11-05T20:21:32.665Z,100017.91
2018-11-05T20:24:01.055Z,100013.17
2018-11-05T20:26:29.460Z,100012.78
2018-11-05T20:28:57.928Z,100012.78
2018-11-05T20:31:26.620Z,100014.06
2018-11-05T20:33:55.027Z,100016.20
2018-11-05T20:36:23.335Z,100012.75
2018-11-05T20:38:51.818Z,100012.33
2018-11-05T20:41:20.284Z,100013.19
2018-11-05T20:43:48.807Z,100009.77
2018-11-05T20:46:17.288Z,100022.56
2018-11-05T20:48:45.766Z,100028.53
2018-11-05T20:51:14.253Z,100028.96
2018-11-05T20:53:42.690Z,100032.38
2018-11-05T20:56:11.137Z,100030.66
2018-11-05T20:58:39.537Z,100036.64
2018-11-05T21:01:08.070Z,100036.20
2018-11-05T21:03:36.392Z,100027.68
2018-11-05T21:06:04.987Z,100028.11
2018-11-05T21:08:33.435Z,100039.62
2018-11-05T21:11:01.931Z,100036.17
2018-11-05T21:13:30.379Z,100045.98
2018-11-05T21:15:58.890Z,100046.83
2018-11-05T21:18:27.312Z,100037.03
2018-11-05T21:20:55.807Z,100040.44
2018-11-05T21:23:24.238Z,100042.14
2018-11-05T21:25:52.657Z,100044.27
2018-11-05T21:28:21.096Z,100047.69
2018-11-05T21:30:49.559Z,100042.57
2018-11-05T21:33:17.944Z,100045.13
2018-11-05T21:35:46.357Z,100036.17
2018-11-05T21:38:14.737Z,100034.47
2018-11-05T21:40:43.218Z,100034.05
2018-11-05T21:43:11.689Z,100028.50
2018-11-05T21:45:40.147Z,100031.91
2018-11-05T21:48:08.553Z,100037.03
2018-11-05T21:50:36.954Z,100042.56
2018-11-05T21:53:05.501Z,100042.14
2018-11-05T21:55:33.916Z,100037.03
2018-11-05T21:58:02.314Z,100038.73
2018-11-05T22:00:30.796Z,100035.32
2018-11-05T22:03:01.505Z,100031.48
2018-11-05T22:05:29.936Z,100030.64
2018-11-05T22:07:58.333Z,100025.95
2018-11-05T22:10:26.848Z,100019.13
2018-11-05T22:12:55.332Z,100020.83
2018-11-05T22:15:23.785Z,100014.87
2018-11-05T22:17:52.788Z,100022.11
2018-11-05T22:20:21.332Z,100028.08
2018-11-05T22:22:49.781Z,100025.52
2018-11-05T22:25:18.245Z,100033.63
2018-11-05T22:27:46.681Z,100026.80
2018-11-05T22:30:15.109Z,100029.36
2018-11-05T22:32:43.517Z,100026.38
2018-11-05T22:35:11.924Z,100021.72
2018-11-05T22:37:40.375Z,100026.83
2018-11-05T22:40:11.284Z,100026.80
2018-11-05T22:42:39.710Z,100018.27
2018-11-05T22:45:08.568Z,100016.57
2018-11-05T22:47:37.186Z,100023.81
2018-11-05T22:50:06.215Z,100023.39
2018-11-05T22:52:34.617Z,100028.93
2018-11-05T22:55:03.117Z,100033.19
2018-11-05T22:57:31.554Z,100030.21
2018-11-05T22:59:59.995Z,100033.62
2018-11-05T23:02:28.467Z,100027.23
2018-11-05T23:04:56.929Z,100017.81
2018-11-05T23:07:25.365Z,100029.31
2018-11-05T23:09:53.846Z,100034.00
2018-11-05T23:12:22.272Z,100036.56
2018-11-05T23:14:50.684Z,100034.00
2018-11-05T23:17:19.087Z,100034.42
2018-11-05T23:19:47.523Z,100034.42
2018-11-05T23:22:15.942Z,100030.58
2018-11-05T23:24:44.384Z,100023.73
2018-11-05T23:27:12.819Z,100033.11
2018-11-05T23:29:41.305Z,100037.79
2018-11-05T23:32:09.737Z,100035.23
2018-11-05T23:34:38.431Z,100046.73
2018-11-05T23:37:06.897Z,100039.92
2018-11-05T23:39:35.300Z,100038.63
2018-11-05T23:42:03.741Z,100039.91
2018-11-05T23:44:32.168Z,100048.00
2018-11-05T23:47:00.576Z,100046.73
2018-11-05T23:49:28.993Z,100041.19
2018-11-05T23:51:57.503Z,100045.88
2018-11-05T23:54:26.676Z,100043.74
2018-11-05T23:56:55.070Z,100049.27
2018-11-05T23:59:23.466Z,100053.53
